createdAt,value
2023-07-07T00:02:00.223Z,10.70
2023-07-07T00:04:30.665Z,10.70
2023-07-07T00:07:00.032Z,10.70
2023-07-07T00:09:29.372Z,10.70
2023-07-07T00:11:59.225Z,10.60
2023-07-07T00:14:30.017Z,10.70
2023-07-07T00:17:03.349Z,10.60
2023-07-07T00:19:34.687Z,10.60
2023-07-07T00:22:03.799Z,10.70
2023-07-07T00:24:33.445Z,10.80
2023-07-07T00:27:02.574Z,10.70
2023-07-07T00:29:33.036Z,10.60
2023-07-07T00:32:02.148Z,10.60
2023-07-07T00:34:31.640Z,10.50
2023-07-07T00:37:00.704Z,10.40
2023-07-07T00:39:30.069Z,10.40
2023-07-07T00:41:59.736Z,10.40
2023-07-07T00:44:53.870Z,10.30
2023-07-07T00:47:23.919Z,10.30
2023-07-07T00:49:52.921Z,10.30
2023-07-07T00:52:22.060Z,10.30
2023-07-07T00:54:51.111Z,10.30
2023-07-07T00:57:20.499Z,10.30
2023-07-07T00:59:51.551Z,10.30
2023-07-07T01:02:26.865Z,10.30
2023-07-07T01:05:00.048Z,10.30
2023-07-07T01:07:33.186Z,10.20
2023-07-07T01:10:02.449Z,10.20
2023-07-07T01:12:31.701Z,10.30
2023-07-07T01:15:04.118Z,10.30
2023-07-07T01:17:43.965Z,10.20
2023-07-07T01:20:23.394Z,10.20
2023-07-07T01:23:25.363Z,10.10
2023-07-07T01:26:16.180Z,10.00
2023-07-07T01:29:17.800Z,10.00
2023-07-07T01:31:51.273Z,10.00
2023-07-07T01:34:21.186Z,10.00
2023-07-07T01:36:50.545Z,10.00
2023-07-07T01:39:19.493Z,10.00
2023-07-07T01:41:55.785Z,10.00
2023-07-07T01:44:32.412Z,10.00
2023-07-07T01:47:13.324Z,10.10
2023-07-07T01:49:47.455Z,10.10
2023-07-07T01:52:20.772Z,10.00
2023-07-07T01:55:00.026Z,10.00
2023-07-07T01:57:31.599Z,9.90
2023-07-07T02:00:01.686Z,9.90
2023-07-07T02:02:32.483Z,9.80
2023-07-07T02:05:02.052Z,9.80
2023-07-07T02:07:31.447Z,9.80
2023-07-07T02:10:00.245Z,9.80
2023-07-07T02:12:29.476Z,9.80
2023-07-07T02:14:59.441Z,9.80
2023-07-07T02:17:30.628Z,9.90
2023-07-07T02:20:01.984Z,9.80
2023-07-07T02:22:31.509Z,9.80
2023-07-07T02:25:00.758Z,9.80
2023-07-07T02:27:31.946Z,9.70
2023-07-07T02:30:01.338Z,9.70
2023-07-07T02:32:30.348Z,9.70
2023-07-07T02:35:03.282Z,9.70
2023-07-07T02:37:32.559Z,9.70
2023-07-07T02:40:03.803Z,9.70
2023-07-07T02:42:32.834Z,9.70
2023-07-07T02:45:02.306Z,9.70
2023-07-07T02:47:32.312Z,9.60
2023-07-07T02:50:02.878Z,9.60
2023-07-07T02:52:33.219Z,9.50
2023-07-07T02:55:02.085Z,9.50
2023-07-07T02:57:31.051Z,9.50
2023-07-07T03:00:00.293Z,9.40
2023-07-07T03:02:29.677Z,9.40
2023-07-07T03:04:58.762Z,9.40
2023-07-07T03:07:29.391Z,9.40
2023-07-07T03:09:58.509Z,9.50
2023-07-07T03:12:27.562Z,9.60
2023-07-07T03:14:57.411Z,9.70
2023-07-07T03:17:27.838Z,9.60
2023-07-07T03:19:57.603Z,9.60
2023-07-07T03:22:26.600Z,9.60
2023-07-07T03:25:04.619Z,9.70
2023-07-07T03:27:46.928Z,9.80
2023-07-07T03:30:39.610Z,9.90
2023-07-07T03:33:15.637Z,9.90
2023-07-07T03:35:48.086Z,9.90
2023-07-07T03:38:17.540Z,10.00
2023-07-07T03:40:51.510Z,10.00
2023-07-07T03:43:30.230Z,10.10
2023-07-07T03:45:59.138Z,10.10
2023-07-07T03:48:27.950Z,10.20
2023-07-07T03:51:01.260Z,10.30
2023-07-07T03:53:33.096Z,10.40
2023-07-07T03:56:06.487Z,10.50
2023-07-07T03:58:36.444Z,10.60
2023-07-07T04:01:07.384Z,10.70
2023-07-07T04:03:37.250Z,10.80
2023-07-07T04:06:07.364Z,10.90
2023-07-07T04:08:36.589Z,11.00
2023-07-07T04:11:09.499Z,11.10
2023-07-07T04:13:40.340Z,11.20
2023-07-07T04:16:11.096Z,11.30
2023-07-07T04:18:41.173Z,11.40
2023-07-07T04:21:11.625Z,11.50
2023-07-07T04:23:42.215Z,11.60
2023-07-07T04:26:13.286Z,11.80
2023-07-07T04:28:43.116Z,11.90
2023-07-07T04:31:14.681Z,12.00
2023-07-07T04:33:44.545Z,12.10
2023-07-07T04:36:14.726Z,12.20
2023-07-07T04:38:44.355Z,12.30
2023-07-07T04:41:16.997Z,12.40
2023-07-07T04:43:48.439Z,12.50
2023-07-07T04:46:19.909Z,12.70
2023-07-07T04:48:50.101Z,12.80
2023-07-07T04:51:20.639Z,12.90
2023-07-07T04:53:50.340Z,13.00
2023-07-07T04:56:22.897Z,13.10
2023-07-07T04:58:53.785Z,13.30
2023-07-07T05:01:28.290Z,13.40
2023-07-07T05:03:59.086Z,13.50
2023-07-07T05:06:30.581Z,13.60
2023-07-07T05:08:59.848Z,13.70
2023-07-07T05:11:35.829Z,13.90
2023-07-07T05:14:05.967Z,14.00
2023-07-07T05:16:38.096Z,14.20
2023-07-07T05:19:08.254Z,14.30
2023-07-07T05:21:37.681Z,14.40
2023-07-07T05:24:07.368Z,14.60
2023-07-07T05:26:38.351Z,14.70
2023-07-07T05:29:08.061Z,14.90
2023-07-07T05:31:37.424Z,15.10
2023-07-07T05:34:07.050Z,15.20
2023-07-07T05:36:36.520Z,15.30
2023-07-07T05:39:08.099Z,15.40
2023-07-07T05:41:38.913Z,15.60
2023-07-07T05:44:10.645Z,15.70
2023-07-07T05:46:40.421Z,15.80
2023-07-07T05:49:09.722Z,15.90
2023-07-07T05:51:39.171Z,16.00
2023-07-07T05:54:10.177Z,16.20
2023-07-07T05:56:41.171Z,16.40
2023-07-07T05:59:10.433Z,16.60
2023-07-07T06:01:40.682Z,16.80
2023-07-07T06:04:09.993Z,17.00
2023-07-07T06:06:41.114Z,17.10
2023-07-07T06:09:10.606Z,17.30
2023-07-07T06:11:41.378Z,17.40
2023-07-07T06:14:10.685Z,17.10
2023-07-07T06:16:40.239Z,17.60
2023-07-07T06:19:09.731Z,17.80
2023-07-07T06:21:38.836Z,17.90
2023-07-07T06:24:08.534Z,18.10
2023-07-07T06:26:37.602Z,18.20
2023-07-07T06:29:08.038Z,18.30
2023-07-07T06:31:37.158Z,18.50
2023-07-07T06:34:06.566Z,18.60
2023-07-07T06:36:39.050Z,18.80
2023-07-07T06:39:08.107Z,19.00
2023-07-07T06:41:37.589Z,19.00
2023-07-07T06:44:08.988Z,19.20
2023-07-07T06:46:38.411Z,19.30
2023-07-07T06:49:07.505Z,19.50
2023-07-07T06:51:36.521Z,19.60
2023-07-07T06:54:05.714Z,19.80
2023-07-07T06:56:34.820Z,19.90
2023-07-07T06:59:03.976Z,20.00
2023-07-07T07:01:35.740Z,20.20
2023-07-07T07:04:05.692Z,20.30
2023-07-07T07:06:35.145Z,20.40
2023-07-07T07:09:04.300Z,20.60
2023-07-07T07:11:33.305Z,20.70
2023-07-07T07:14:02.380Z,20.90
2023-07-07T07:16:31.574Z,20.90
2023-07-07T07:19:05.595Z,21.10
2023-07-07T07:21:35.082Z,21.20
2023-07-07T07:24:04.425Z,21.40
2023-07-07T07:26:33.838Z,21.40
2023-07-07T07:29:02.997Z,21.60
2023-07-07T07:31:32.251Z,21.60
2023-07-07T07:34:25.142Z,21.60
2023-07-07T07:36:55.022Z,21.80
2023-07-07T07:39:25.807Z,21.90
2023-07-07T07:41:56.560Z,21.90
2023-07-07T07:44:27.368Z,21.90
2023-07-07T07:46:58.787Z,22.00
2023-07-07T07:49:31.038Z,22.20
2023-07-07T07:52:00.383Z,22.20
2023-07-07T07:54:29.904Z,22.40
2023-07-07T07:56:58.835Z,22.40
2023-07-07T07:59:27.931Z,22.80
2023-07-07T08:01:57.012Z,23.10
2023-07-07T08:04:26.316Z,23.10
2023-07-07T08:06:57.849Z,23.00
2023-07-07T08:09:27.240Z,23.30
2023-07-07T08:12:06.034Z,23.40
2023-07-07T08:14:36.249Z,23.50
2023-07-07T08:17:08.274Z,23.70
2023-07-07T08:19:39.907Z,23.90
2023-07-07T08:22:14.420Z,24.20
2023-07-07T08:24:48.374Z,24.00
2023-07-07T08:29:51.260Z,24.80
2023-07-07T08:32:24.163Z,25.00
2023-07-07T08:34:55.420Z,25.10
2023-07-07T08:37:27.830Z,25.30
2023-07-07T08:39:57.568Z,25.50
2023-07-07T08:42:31.358Z,25.70
2023-07-07T08:45:01.940Z,25.80
2023-07-07T08:47:56.625Z,25.50
2023-07-07T08:50:35.413Z,25.90
2023-07-07T08:53:26.095Z,26.20
2023-07-07T08:56:02.540Z,26.90
2023-07-07T08:58:39.343Z,27.40
2023-07-07T09:01:34.993Z,27.40
2023-07-07T09:04:19.509Z,27.60
2023-07-07T09:07:05.260Z,28.70
2023-07-07T09:09:50.656Z,29.80
2023-07-07T09:12:32.885Z,31.50
2023-07-07T09:15:06.254Z,33.20
2023-07-07T09:17:42.895Z,34.20
2023-07-07T09:20:13.809Z,35.00
2023-07-07T09:22:50.118Z,34.00
2023-07-07T09:25:44.267Z,33.40
2023-07-07T09:28:18.207Z,33.20
2023-07-07T09:30:51.118Z,32.40
2023-07-07T09:33:24.375Z,32.00
2023-07-07T09:36:03.772Z,32.60
2023-07-07T09:38:50.120Z,32.90
2023-07-07T09:41:31.536Z,30.90
2023-07-07T09:44:17.797Z,29.50
2023-07-07T09:46:55.579Z,28.20
2023-07-07T09:49:30.032Z,27.40
2023-07-07T09:52:09.482Z,26.60
2023-07-07T09:54:39.788Z,26.40
2023-07-07T09:57:18.682Z,26.40
2023-07-07T09:59:53.728Z,26.50
2023-07-07T10:02:25.293Z,27.80
2023-07-07T10:05:00.633Z,28.80
2023-07-07T10:07:34.516Z,30.80
2023-07-07T10:10:06.144Z,31.00
2023-07-07T10:12:37.971Z,31.30
2023-07-07T10:15:32.013Z,29.90
2023-07-07T10:18:07.318Z,29.80
2023-07-07T10:20:37.985Z,28.70
2023-07-07T10:23:11.890Z,27.50
2023-07-07T10:25:43.548Z,27.80
2023-07-07T10:28:17.971Z,28.30
2023-07-07T10:30:48.452Z,29.70
2023-07-07T10:33:20.051Z,31.40
2023-07-07T10:35:49.461Z,32.40
2023-07-07T10:38:18.861Z,33.70
2023-07-07T10:40:50.000Z,33.10
2023-07-07T10:43:24.867Z,32.90
2023-07-07T10:45:54.096Z,33.20
2023-07-07T10:48:24.318Z,33.80
2023-07-07T10:51:03.389Z,33.70
2023-07-07T10:53:46.764Z,34.00
2023-07-07T10:56:22.541Z,34.50
2023-07-07T10:59:26.462Z,34.60
2023-07-07T11:02:07.864Z,34.60
2023-07-07T11:05:08.691Z,33.00
2023-07-07T11:07:49.936Z,30.70
2023-07-07T11:10:45.435Z,29.30
2023-07-07T11:13:22.069Z,28.20
2023-07-07T11:16:01.530Z,28.20
2023-07-07T11:18:55.486Z,27.50
2023-07-07T11:21:33.890Z,27.00
2023-07-07T11:27:20.526Z,25.90
2023-07-07T11:30:00.531Z,25.80
2023-07-07T11:32:40.905Z,25.70
2023-07-07T11:35:45.229Z,27.80
2023-07-07T11:38:45.221Z,30.30
2023-07-07T11:41:26.061Z,31.70
2023-07-07T11:44:21.540Z,35.40
2023-07-07T11:47:06.646Z,34.10
2023-07-07T11:49:51.186Z,33.70
2023-07-07T11:52:34.131Z,32.70
2023-07-07T11:55:19.949Z,30.60
2023-07-07T11:58:01.201Z,29.10
2023-07-07T12:00:43.083Z,28.50
2023-07-07T12:03:39.080Z,28.10
2023-07-07T12:06:20.709Z,27.60
2023-07-07T12:09:01.136Z,27.30
2023-07-07T12:11:34.431Z,27.10
2023-07-07T12:14:16.228Z,27.40
2023-07-07T12:16:49.363Z,28.70
2023-07-07T12:19:26.365Z,29.50
2023-07-07T12:21:59.077Z,31.50
2023-07-07T12:24:33.462Z,32.70
2023-07-07T12:27:10.516Z,34.80
2023-07-07T12:29:42.992Z,36.20
2023-07-07T12:32:12.678Z,37.70
2023-07-07T12:34:44.465Z,39.70
2023-07-07T12:37:22.262Z,38.50
2023-07-07T12:39:57.039Z,38.50
2023-07-07T12:42:29.572Z,36.00
2023-07-07T12:45:00.990Z,35.10
2023-07-07T12:47:33.874Z,34.30
2023-07-07T12:50:05.424Z,35.90
2023-07-07T12:52:44.090Z,37.20
2023-07-07T12:55:25.004Z,35.90
2023-07-07T12:58:16.796Z,34.40
2023-07-07T13:00:48.340Z,33.80
2023-07-07T13:03:22.784Z,35.00
2023-07-07T13:05:53.648Z,34.80
2023-07-07T13:08:41.452Z,35.20
2023-07-07T13:11:17.272Z,35.20
2023-07-07T13:13:48.440Z,35.90
2023-07-07T13:16:21.428Z,35.40
2023-07-07T13:18:51.647Z,35.10
2023-07-07T13:21:22.157Z,35.60
2023-07-07T13:23:54.080Z,35.80
2023-07-07T13:26:28.021Z,35.90
2023-07-07T13:29:01.397Z,35.40
2023-07-07T13:31:30.679Z,32.70
2023-07-07T13:33:59.641Z,30.70
2023-07-07T13:36:30.120Z,31.60
2023-07-07T13:39:03.283Z,33.30
2023-07-07T13:41:33.501Z,34.70
2023-07-07T13:44:02.830Z,35.70
2023-07-07T13:46:33.852Z,35.80
2023-07-07T13:49:07.402Z,37.30
2023-07-07T13:51:39.964Z,38.90
2023-07-07T13:54:12.519Z,38.10
2023-07-07T13:56:50.744Z,37.80
2023-07-07T13:59:26.054Z,37.40
2023-07-07T14:01:58.090Z,37.30
2023-07-07T14:04:30.043Z,34.60
2023-07-07T14:06:59.452Z,35.80
2023-07-07T14:09:40.511Z,35.90
2023-07-07T14:12:13.419Z,34.70
2023-07-07T14:14:44.359Z,33.10
2023-07-07T14:17:20.629Z,32.40
2023-07-07T14:19:55.083Z,32.10
2023-07-07T14:22:25.005Z,31.50
2023-07-07T14:24:57.596Z,31.90
2023-07-07T14:27:28.878Z,30.50
2023-07-07T14:29:58.757Z,31.30
2023-07-07T14:32:35.458Z,31.60
2023-07-07T14:35:21.386Z,31.40
2023-07-07T14:37:54.989Z,30.30
2023-07-07T14:40:47.823Z,30.00
2023-07-07T14:43:27.952Z,30.20
2023-07-07T14:46:01.323Z,30.10
2023-07-07T14:48:31.419Z,30.20
2023-07-07T14:51:10.534Z,29.70
2023-07-07T14:53:40.378Z,30.80
2023-07-07T14:56:27.000Z,30.20
2023-07-07T14:59:00.175Z,30.30
2023-07-07T15:01:33.558Z,29.70
2023-07-07T15:04:11.496Z,29.80
2023-07-07T15:06:43.773Z,29.70
2023-07-07T15:09:14.305Z,29.00
2023-07-07T15:11:46.068Z,28.70
2023-07-07T15:14:17.374Z,28.80
2023-07-07T15:16:48.902Z,29.00
2023-07-07T15:19:20.682Z,28.70
2023-07-07T15:21:50.330Z,29.40
2023-07-07T15:24:19.689Z,29.00
2023-07-07T15:26:51.677Z,29.70
2023-07-07T15:29:23.646Z,28.60
2023-07-07T15:31:53.099Z,28.40
2023-07-07T15:34:22.580Z,28.80
2023-07-07T15:36:51.750Z,28.80
2023-07-07T15:39:26.205Z,28.20
2023-07-07T15:41:57.918Z,28.10
2023-07-07T15:44:28.084Z,28.30
2023-07-07T15:46:57.501Z,28.30
2023-07-07T15:49:26.798Z,28.60
2023-07-07T15:51:57.713Z,28.60
2023-07-07T15:54:27.171Z,28.80
2023-07-07T15:56:57.913Z,28.10
2023-07-07T15:59:28.957Z,28.10
2023-07-07T16:01:59.874Z,27.70
2023-07-07T16:04:31.649Z,27.60
2023-07-07T16:07:00.811Z,27.30
2023-07-07T16:09:30.146Z,27.30
2023-07-07T16:12:00.654Z,27.40
2023-07-07T16:14:30.636Z,27.50
2023-07-07T16:16:59.685Z,27.70
2023-07-07T16:19:29.477Z,27.60
2023-07-07T16:21:58.497Z,27.70
2023-07-07T16:24:28.263Z,27.50
2023-07-07T16:26:57.283Z,27.20
2023-07-07T16:29:29.157Z,27.10
2023-07-07T16:31:58.826Z,27.10
2023-07-07T16:34:27.866Z,27.20
2023-07-07T16:36:57.022Z,27.20
2023-07-07T16:39:26.117Z,27.10
2023-07-07T16:41:55.414Z,26.90
2023-07-07T16:44:24.804Z,26.80
2023-07-07T16:46:55.387Z,26.90
2023-07-07T16:49:26.181Z,26.50
2023-07-07T16:51:55.451Z,26.40
2023-07-07T16:54:24.498Z,26.40
2023-07-07T16:56:53.848Z,26.30
2023-07-07T16:59:23.219Z,26.20
2023-07-07T17:01:52.335Z,26.00
2023-07-07T17:04:23.284Z,25.90
2023-07-07T17:06:53.650Z,25.70
2023-07-07T17:09:26.266Z,25.50
2023-07-07T17:11:56.038Z,25.40
2023-07-07T17:14:25.261Z,25.30
2023-07-07T17:16:54.421Z,25.40
2023-07-07T17:19:26.026Z,25.30
2023-07-07T17:21:55.649Z,25.20
2023-07-07T17:24:25.068Z,25.20
2023-07-07T17:26:55.838Z,25.10
2023-07-07T17:29:24.608Z,25.00
2023-07-07T17:31:53.880Z,25.00
2023-07-07T17:34:24.443Z,24.60
2023-07-07T17:36:53.999Z,24.40
2023-07-07T17:39:23.385Z,24.30
2023-07-07T17:41:52.664Z,24.20
2023-07-07T17:44:22.010Z,24.20
2023-07-07T17:46:52.295Z,24.10
2023-07-07T17:49:25.304Z,24.20
2023-07-07T17:51:54.769Z,24.20
2023-07-07T17:54:23.535Z,24.00
2023-07-07T17:56:52.831Z,23.90
2023-07-07T17:59:23.994Z,23.80
2023-07-07T18:01:56.718Z,23.70
2023-07-07T18:04:27.529Z,23.60
2023-07-07T18:06:57.252Z,23.50
2023-07-07T18:09:26.264Z,23.40
2023-07-07T18:11:55.529Z,23.20
2023-07-07T18:14:25.952Z,23.00
2023-07-07T18:17:12.534Z,22.80
2023-07-07T18:20:41.773Z,22.60
2023-07-07T18:22:36.115Z,22.50
2023-07-07T18:25:05.319Z,22.40
2023-07-07T18:27:34.706Z,22.20
2023-07-07T18:30:04.439Z,22.00
2023-07-07T18:32:33.782Z,21.90
2023-07-07T18:37:36.763Z,21.60
2023-07-07T18:40:16.717Z,21.50
2023-07-07T18:42:45.869Z,21.30
2023-07-07T18:45:15.160Z,21.10
2023-07-07T18:47:44.490Z,20.90
2023-07-07T18:50:31.050Z,20.60
2023-07-07T18:53:01.721Z,20.30
2023-07-07T18:55:31.361Z,19.90
2023-07-07T18:58:00.722Z,19.70
2023-07-07T19:00:34.948Z,19.60
2023-07-07T19:03:04.630Z,19.40
2023-07-07T19:05:37.273Z,19.20
2023-07-07T19:08:13.131Z,19.20
2023-07-07T19:10:46.718Z,18.90
2023-07-07T19:13:18.289Z,18.80
2023-07-07T19:15:51.578Z,18.70
2023-07-07T19:18:24.378Z,18.60
2023-07-07T19:20:55.228Z,18.50
2023-07-07T19:23:24.601Z,18.30
2023-07-07T19:25:54.820Z,18.20
2023-07-07T19:28:30.506Z,18.00
2023-07-07T19:30:59.902Z,17.90
2023-07-07T19:33:29.055Z,17.60
2023-07-07T19:36:02.516Z,17.60
2023-07-07T19:38:32.353Z,17.50
2023-07-07T19:41:04.699Z,17.30
2023-07-07T19:43:33.771Z,17.40
2023-07-07T19:46:04.939Z,17.60
2023-07-07T19:48:34.405Z,17.60
2023-07-07T19:51:07.822Z,17.40
2023-07-07T19:53:38.348Z,17.30
2023-07-07T19:56:08.069Z,17.10
2023-07-07T19:58:37.663Z,16.80
2023-07-07T20:01:14.134Z,16.50
2023-07-07T20:03:45.069Z,16.40
2023-07-07T20:06:18.018Z,16.20
2023-07-07T20:08:47.354Z,16.10
2023-07-07T20:11:19.914Z,16.00
2023-07-07T20:13:49.956Z,16.00
2023-07-07T20:16:22.746Z,15.90
2023-07-07T20:18:55.895Z,15.70
2023-07-07T20:21:28.148Z,15.60
2023-07-07T20:23:57.559Z,15.60
2023-07-07T20:26:29.371Z,15.50
2023-07-07T20:28:59.833Z,15.40
2023-07-07T20:31:29.558Z,15.30
2023-07-07T20:33:59.030Z,15.30
2023-07-07T20:36:29.809Z,15.20
2023-07-07T20:38:59.744Z,15.10
2023-07-07T20:41:29.163Z,15.10
2023-07-07T20:43:58.325Z,15.00
2023-07-07T20:46:30.845Z,15.00
2023-07-07T20:49:03.300Z,14.90
2023-07-07T20:51:34.292Z,14.90
2023-07-07T20:54:03.335Z,14.90
2023-07-07T20:56:33.706Z,14.80
2023-07-07T20:59:06.179Z,14.80
2023-07-07T21:01:35.544Z,14.60
2023-07-07T21:04:05.014Z,14.40
2023-07-07T21:06:38.030Z,14.30
2023-07-07T21:09:14.089Z,14.00
2023-07-07T21:11:43.843Z,13.90
2023-07-07T21:14:13.433Z,13.80
2023-07-07T21:16:47.438Z,13.70
2023-07-07T21:19:17.340Z,13.70
2023-07-07T21:21:47.981Z,13.60
2023-07-07T21:24:17.604Z,13.70
2023-07-07T21:26:47.409Z,13.60
2023-07-07T21:29:16.302Z,13.60
2023-07-07T21:31:45.439Z,13.60
2023-07-07T21:34:16.670Z,13.60
2023-07-07T21:36:47.568Z,13.60
2023-07-07T21:39:28.857Z,13.50
2023-07-07T21:44:34.310Z,13.40
2023-07-07T21:47:03.728Z,13.40
2023-07-07T21:49:32.982Z,13.30
2023-07-07T21:52:05.690Z,13.20
2023-07-07T21:54:35.433Z,13.10
2023-07-07T21:57:04.293Z,13.00
2023-07-07T21:59:33.377Z,13.00
2023-07-07T22:02:17.250Z,13.00
2023-07-07T22:04:47.109Z,13.00
2023-07-07T22:07:18.241Z,12.90
2023-07-07T22:09:47.684Z,12.90
2023-07-07T22:12:17.995Z,12.60
2023-07-07T22:14:47.755Z,12.80
2023-07-07T22:17:17.356Z,12.60
2023-07-07T22:19:47.148Z,12.40
2023-07-07T22:22:17.366Z,12.30
2023-07-07T22:24:46.788Z,12.20
2023-07-07T22:27:16.117Z,12.20
2023-07-07T22:29:47.378Z,12.20
2023-07-07T22:32:16.485Z,12.20
2023-07-07T22:34:45.364Z,12.20
2023-07-07T22:37:14.538Z,12.20
2023-07-07T22:39:45.343Z,12.20
2023-07-07T22:42:14.641Z,12.20
2023-07-07T22:44:43.810Z,12.10
2023-07-07T22:47:12.869Z,12.10
2023-07-07T22:49:41.944Z,12.10
2023-07-07T22:52:14.353Z,12.10
2023-07-07T22:54:45.159Z,12.00
2023-07-07T22:57:14.415Z,11.90
2023-07-07T22:59:43.737Z,11.80
2023-07-07T23:02:13.929Z,11.80
2023-07-07T23:04:43.108Z,11.90
2023-07-07T23:07:13.894Z,11.90
2023-07-07T23:09:47.583Z,11.80
2023-07-07T23:12:20.534Z,11.80
2023-07-07T23:14:50.645Z,11.70
2023-07-07T23:17:43.400Z,11.80
2023-07-07T23:20:19.530Z,11.80
2023-07-07T23:22:51.378Z,11.80
2023-07-07T23:25:24.257Z,11.80
2023-07-07T23:28:00.483Z,11.80
2023-07-07T23:30:39.644Z,12.30
2023-07-07T23:33:12.555Z,11.80
2023-07-07T23:35:44.680Z,11.70
2023-07-07T23:38:15.291Z,11.70
2023-07-07T23:40:46.904Z,11.60
2023-07-07T23:43:17.563Z,11.50
2023-07-07T23:45:47.390Z,11.30
2023-07-07T23:48:18.512Z,11.10
2023-07-07T23:50:51.070Z,11.00
2023-07-07T23:53:22.225Z,10.90
2023-07-07T23:55:54.188Z,10.90
2023-07-07T23:58:26.315Z,10.90
